Time;durP1;ratioP1;P1;durP2;ratioP2;P2;SDS_P1;SDS_P2;PMS_P1;PMS_P2;Temp;Humidity;BMP_temperature;BMP_pressure;BME280_temperature;BME280_humidity;BME280_pressure;Samples;Min_cycle;Max_cycle;Signal;HPM_P1;HPM_P2
2023/08/01 00:01:23;;;;;;;5.70;5.20;;;19.90;99.90;;;;;;10418756;28;20302;-80
2023/08/01 00:06:25;;;;;;;5.70;5.20;;;19.80;99.90;;;;;;10417214;28;20667;-81
2023/08/01 00:11:27;;;;;;;5.10;4.70;;;19.90;99.90;;;;;;10417746;28;20213;-80
2023/08/01 00:16:32;;;;;;;5.40;4.87;;;19.80;99.90;;;;;;10417099;28;20230;-80
2023/08/01 00:21:34;;;;;;;6.00;5.40;;;19.60;99.90;;;;;;10416411;28;20242;-81
2023/08/01 00:26:36;;;;;;;6.50;5.77;;;19.50;99.90;;;;;;10416246;28;20219;-80
2023/08/01 00:31:39;;;;;;;6.67;6.07;;;19.50;99.90;;;;;;10416540;28;20195;-80
2023/08/01 00:36:41;;;;;;;10.07;6.73;;;19.40;99.90;;;;;;10415314;28;20226;-78
2023/08/01 00:41:43;;;;;;;5.40;5.00;;;19.40;99.90;;;;;;10414598;28;20195;-80
2023/08/01 00:46:47;;;;;;;6.03;5.53;;;19.50;99.90;;;;;;10412913;28;20226;-78
2023/08/01 00:51:49;;;;;;;6.43;5.93;;;19.50;99.90;;;;;;10413168;28;20206;-78
2023/08/01 00:56:51;;;;;;;6.50;5.90;;;19.60;99.90;;;;;;10401053;28;20215;-80
2023/08/01 01:01:55;;;;;;;6.40;5.90;;;19.70;99.90;;;;;;10409367;28;20213;-79
2023/08/01 01:07:03;;;;;;;5.43;4.93;;;19.80;99.90;;;;;;10411213;28;20260;-80
2023/08/01 01:12:07;;;;;;;5.70;5.20;;;19.80;99.90;;;;;;10412482;28;20285;-80
2023/08/01 01:17:10;;;;;;;5.83;5.43;;;19.80;99.90;;;;;;10412988;28;20277;-78
2023/08/01 01:22:15;;;;;;;5.93;5.43;;;19.80;99.90;;;;;;10421001;28;20214;-79
2023/08/01 01:27:18;;;;;;;4.80;4.40;;;19.80;99.90;;;;;;10412511;28;20226;-79
2023/08/01 01:32:22;;;;;;;5.80;5.13;;;19.80;99.90;;;;;;10411819;28;20198;-79
2023/08/01 01:37:25;;;;;;;5.40;4.90;;;19.80;99.90;;;;;;10414126;28;20226;-80
2023/08/01 01:42:28;;;;;;;5.07;4.70;;;19.80;99.90;;;;;;10411753;28;20199;-80
2023/08/01 01:47:30;;;;;;;5.90;4.90;;;19.70;99.90;;;;;;10414254;28;20237;-79
2023/08/01 01:52:33;;;;;;;5.87;5.40;;;19.60;99.90;;;;;;10418343;28;20209;-80
2023/08/01 01:57:37;;;;;;;6.00;5.33;;;19.50;99.90;;;;;;10421515;28;20309;-80
2023/08/01 02:02:39;;;;;;;5.53;5.03;;;19.60;99.90;;;;;;10404319;28;20674;-78
2023/08/01 02:07:42;;;;;;;5.40;4.90;;;19.60;99.90;;;;;;10420263;28;20226;-79
2023/08/01 02:12:44;;;;;;;6.30;5.70;;;19.70;99.90;;;;;;10421677;28;20205;-80
2023/08/01 02:17:46;;;;;;;5.57;5.07;;;19.70;99.90;;;;;;10421920;28;20653;-80
2023/08/01 02:22:50;;;;;;;5.53;5.07;;;19.80;99.90;;;;;;10420323;28;20206;-80
2023/08/01 02:27:52;;;;;;;5.83;5.37;;;19.80;99.90;;;;;;10421191;28;20222;-80
2023/08/01 02:32:54;;;;;;;5.70;5.10;;;19.90;99.90;;;;;;10419807;28;20260;-80
2023/08/01 02:37:58;;;;;;;5.90;5.40;;;19.90;99.90;;;;;;10420778;28;20218;-79
2023/08/01 02:43:00;;;;;;;5.23;4.83;;;19.90;99.90;;;;;;10419810;28;20226;-80
2023/08/01 02:48:02;;;;;;;5.50;5.10;;;19.90;99.90;;;;;;10415929;28;20234;-80
2023/08/01 02:53:05;;;;;;;6.73;6.03;;;20.00;99.90;;;;;;10419873;28;20203;-80
2023/08/01 02:58:07;;;;;;;5.93;5.43;;;20.00;99.90;;;;;;10419269;28;20246;-80
2023/08/01 03:03:10;;;;;;;7.70;5.60;;;20.00;99.90;;;;;;10414147;28;20234;-80
2023/08/01 03:08:13;;;;;;;6.37;5.83;;;19.90;99.90;;;;;;10415718;28;20246;-80
2023/08/01 03:13:15;;;;;;;5.67;5.17;;;19.90;99.90;;;;;;10414585;28;20286;-80
2023/08/01 03:18:17;;;;;;;5.23;4.73;;;19.90;99.90;;;;;;10416127;28;20281;-79
2023/08/01 03:23:21;;;;;;;5.07;4.57;;;20.00;99.90;;;;;;10417891;28;20229;-80
2023/08/01 03:28:23;;;;;;;6.17;4.90;;;20.00;99.90;;;;;;10419374;28;20313;-79
2023/08/01 03:33:25;;;;;;;5.10;4.60;;;20.00;99.90;;;;;;10425346;28;20253;-80
2023/08/01 03:38:29;;;;;;;4.93;4.53;;;20.00;99.90;;;;;;10419972;28;20616;-80
2023/08/01 03:43:31;;;;;;;5.40;5.00;;;20.00;99.90;;;;;;10414846;28;20681;-80
2023/08/01 03:48:33;;;;;;;5.33;4.83;;;20.10;99.90;;;;;;10409245;28;20226;-80
2023/08/01 03:53:37;;;;;;;4.83;4.43;;;20.10;99.90;;;;;;10415611;28;20210;-79
2023/08/01 03:58:39;;;;;;;5.73;4.50;;;20.10;99.90;;;;;;10410276;28;20694;-78
2023/08/01 04:03:41;;;;;;;5.10;4.57;;;20.20;99.90;;;;;;10407397;28;20249;-80
2023/08/01 04:08:45;;;;;;;5.50;5.00;;;20.20;99.90;;;;;;10415950;28;20235;-80
2023/08/01 04:13:47;;;;;;;5.17;4.53;;;20.20;99.90;;;;;;10423142;28;20272;-80
2023/08/01 04:18:49;;;;;;;5.20;4.70;;;20.20;99.90;;;;;;10423284;22;20284;-87
2023/08/01 04:23:52;;;;;;;5.40;4.33;;;20.20;99.90;;;;;;10396777;28;20233;-87
2023/08/01 04:28:55;;;;;;;7.60;4.13;;;20.10;99.90;;;;;;10389610;28;20223;-86
2023/08/01 04:33:57;;;;;;;6.80;4.47;;;20.10;99.90;;;;;;10390523;28;20198;-86
2023/08/01 04:39:00;;;;;;;4.77;4.37;;;20.10;99.90;;;;;;10386805;28;20215;-87
2023/08/01 04:44:02;;;;;;;6.23;4.73;;;20.10;99.90;;;;;;10391258;28;20199;-88
2023/08/01 04:49:04;;;;;;;6.83;3.83;;;20.10;99.90;;;;;;10388986;28;20249;-86
2023/08/01 04:54:08;;;;;;;3.70;3.50;;;20.10;99.90;;;;;;10398598;28;20559;-87
2023/08/01 04:59:12;;;;;;;4.43;4.13;;;20.10;99.90;;;;;;10393282;28;20214;-89
2023/08/01 05:04:14;;;;;;;5.90;4.07;;;20.20;99.90;;;;;;10379796;28;20218;-86
2023/08/01 05:09:17;;;;;;;5.07;4.40;;;20.10;99.90;;;;;;10419511;28;20227;-86
2023/08/01 05:14:19;;;;;;;4.30;4.00;;;20.20;99.90;;;;;;10404356;28;20199;-87
2023/08/01 05:19:21;;;;;;;5.97;3.47;;;20.20;99.90;;;;;;10418098;28;20254;-87
2023/08/01 05:24:25;;;;;;;4.97;4.20;;;20.30;99.90;;;;;;10395231;28;20258;-87
2023/08/01 05:29:27;;;;;;;5.03;4.20;;;20.30;99.90;;;;;;10407712;28;20310;-87
2023/08/01 05:34:29;;;;;;;4.93;4.33;;;20.40;99.90;;;;;;10401560;28;20203;-87
2023/08/01 05:39:32;;;;;;;5.07;4.57;;;20.40;99.90;;;;;;10382799;28;20219;-86
2023/08/01 05:44:35;;;;;;;4.27;3.97;;;20.50;99.90;;;;;;10395523;28;20223;-86
2023/08/01 05:49:37;;;;;;;6.70;4.50;;;20.50;99.90;;;;;;10407368;28;20230;-85
2023/08/01 05:54:57;;;;;;;7.40;4.70;;;20.50;99.90;;;;;;10407477;28;20195;-89
2023/08/01 06:00:09;;;;;;;6.43;5.10;;;20.50;99.90;;;;;;10432914;28;20225;-88
2023/08/01 06:05:16;;;;;;;4.70;4.30;;;20.50;99.90;;;;;;10420995;28;20204;-87
2023/08/01 06:10:21;;;;;;;5.57;4.93;;;20.60;99.90;;;;;;10410994;28;20283;-88
2023/08/01 06:15:26;;;;;;;6.97;5.47;;;20.70;99.90;;;;;;10420557;28;20278;-87
2023/08/01 06:20:28;;;;;;;6.57;4.33;;;20.70;99.90;;;;;;10423632;28;20253;-87
2023/08/01 06:25:32;;;;;;;5.53;4.90;;;20.70;99.90;;;;;;10428326;28;20191;-90
2023/08/01 06:30:34;;;;;;;8.83;5.33;;;20.70;99.90;;;;;;10440339;28;20230;-87
2023/08/01 06:35:37;;;;;;;5.30;4.80;;;20.60;99.90;;;;;;10423744;28;20234;-87
2023/08/01 06:40:40;;;;;;;5.90;5.30;;;20.40;99.90;;;;;;10427602;28;20257;-90
2023/08/01 06:45:43;;;;;;;6.20;5.70;;;20.00;99.90;;;;;;10442038;28;20222;-89
2023/08/01 06:50:46;;;;;;;7.73;6.90;;;19.70;99.90;;;;;;10436520;28;20222;-87
2023/08/01 06:55:49;;;;;;;10.07;9.27;;;19.50;99.90;;;;;;10442584;28;20195;-89
2023/08/01 07:00:52;;;;;;;10.37;9.57;;;19.40;99.90;;;;;;10426025;28;20238;-90
2023/08/01 07:05:57;;;;;;;12.47;11.20;;;19.10;99.90;;;;;;10412273;28;20655;-87
2023/08/01 07:11:05;;;;;;;12.17;11.13;;;18.80;99.90;;;;;;10422746;28;20228;-87
2023/08/01 07:16:13;;;;;;;12.23;10.87;;;18.60;99.90;;;;;;10420282;28;20311;-87
2023/08/01 07:21:16;;;;;;;12.80;11.70;;;18.60;99.90;;;;;;10427297;28;20202;-87
2023/08/01 07:26:20;;;;;;;13.03;11.83;;;18.50;99.90;;;;;;10427115;28;20222;-88
2023/08/01 07:31:24;;;;;;;11.63;10.60;;;18.40;99.90;;;;;;10406357;28;20210;-87
2023/08/01 07:36:30;;;;;;;11.03;10.13;;;18.40;99.90;;;;;;10433702;28;20230;-88
2023/08/01 07:41:37;;;;;;;11.87;10.77;;;18.30;99.90;;;;;;10439772;28;20189;-92
2023/08/01 07:46:42;;;;;;;13.03;12.00;;;18.20;99.90;;;;;;10446294;28;20214;-87
2023/08/01 07:51:44;;;;;;;11.70;10.80;;;18.10;99.90;;;;;;10416030;28;20328;-86
2023/08/01 07:56:48;;;;;;;10.93;10.13;;;18.00;99.90;;;;;;10391319;28;20724;-87
2023/08/01 08:01:51;;;;;;;10.90;10.00;;;18.00;99.90;;;;;;10413098;28;20203;-86
2023/08/01 08:06:54;;;;;;;10.60;9.70;;;18.00;99.90;;;;;;10408243;28;20729;-86
2023/08/01 08:11:58;;;;;;;10.30;9.53;;;17.90;99.90;;;;;;10409659;28;20202;-88
2023/08/01 08:17:00;;;;;;;10.87;10.23;;;18.00;99.90;;;;;;10404855;28;20498;-86
2023/08/01 08:22:02;;;;;;;10.23;9.47;;;18.00;99.90;;;;;;10409012;28;20203;-85
2023/08/01 08:27:07;;;;;;;7.80;7.20;;;18.00;99.90;;;;;;10411684;28;20228;-87
2023/08/01 08:32:09;;;;;;;10.50;9.80;;;18.00;99.90;;;;;;10409793;28;20636;-86
2023/08/01 08:37:11;;;;;;;10.40;9.80;;;18.10;99.90;;;;;;10419537;28;20280;-86
2023/08/01 08:42:18;;;;;;;10.40;9.60;;;18.10;99.90;;;;;;10416154;28;20221;-86
2023/08/01 08:47:25;;;;;;;10.30;9.60;;;18.20;99.90;;;;;;10411874;28;20298;-87
2023/08/01 08:52:27;;;;;;;9.40;8.80;;;18.40;99.90;;;;;;10417007;28;20203;-87
2023/08/01 08:57:31;;;;;;;10.00;9.10;;;18.60;99.90;;;;;;10419765;28;20246;-86
2023/08/01 09:02:34;;;;;;;6.30;5.73;;;18.80;99.90;;;;;;10411218;28;20644;-85
2023/08/01 09:07:42;;;;;;;6.90;6.50;;;19.00;99.90;;;;;;10420131;28;20571;-85
2023/08/01 09:12:45;;;;;;;7.37;6.50;;;19.30;99.90;;;;;;10416220;28;20209;-87
2023/08/01 09:17:51;;;;;;;6.80;6.07;;;19.40;99.90;;;;;;10418005;28;20337;-88
2023/08/01 09:22:54;;;;;;;6.00;5.57;;;19.40;99.90;;;;;;10412624;28;20199;-86
2023/08/01 09:27:57;;;;;;;5.60;5.30;;;19.40;99.90;;;;;;10416368;28;20234;-85
2023/08/01 09:32:59;;;;;;;6.17;5.77;;;19.50;99.90;;;;;;10411581;28;20241;-84
2023/08/01 09:38:01;;;;;;;4.60;4.30;;;19.50;99.90;;;;;;10421903;28;20215;-85
2023/08/01 09:43:05;;;;;;;4.60;4.30;;;19.70;99.90;;;;;;10420877;28;20669;-86
2023/08/01 09:48:07;;;;;;;5.13;4.83;;;20.00;99.90;;;;;;10416696;28;20234;-85
2023/08/01 09:53:10;;;;;;;3.93;3.73;;;20.20;99.90;;;;;;10418982;28;20222;-86
2023/08/01 09:58:16;;;;;;;3.10;2.90;;;20.40;99.90;;;;;;10419148;28;20233;-86
2023/08/01 10:03:19;;;;;;;1.90;1.80;;;20.60;99.90;;;;;;10417266;28;20257;-86
2023/08/01 10:08:22;;;;;;;2.40;2.20;;;20.80;99.90;;;;;;10416372;28;20295;-87
2023/08/01 10:13:27;;;;;;;3.17;2.97;;;20.90;99.90;;;;;;10420523;28;20199;-86
2023/08/01 10:18:31;;;;;;;2.30;2.20;;;21.00;99.90;;;;;;10470921;23;20286;-79
2023/08/01 10:23:35;;;;;;;2.10;2.00;;;21.10;99.90;;;;;;10502800;28;20213;-80
2023/08/01 10:28:40;;;;;;;3.53;3.07;;;21.10;99.90;;;;;;10488680;28;20280;-79
2023/08/01 10:33:44;;;;;;;2.60;2.50;;;21.20;99.90;;;;;;10464706;28;20190;-79
2023/08/01 10:38:48;;;;;;;4.37;2.00;;;21.20;99.90;;;;;;10464312;28;20224;-80
2023/08/01 10:43:51;;;;;;;2.03;1.93;;;21.40;99.90;;;;;;10461923;28;20194;-80
2023/08/01 10:48:54;;;;;;;2.23;2.13;;;21.50;99.90;;;;;;10462993;28;20590;-80
2023/08/01 10:53:56;;;;;;;2.60;2.50;;;21.60;99.90;;;;;;10463556;28;20210;-80
2023/08/01 10:59:00;;;;;;;2.53;2.33;;;21.80;99.90;;;;;;10464488;28;20692;-80
2023/08/01 11:04:02;;;;;;;2.30;2.20;;;21.90;99.90;;;;;;10463514;28;20210;-80
2023/08/01 11:09:15;;;;;;;2.23;2.13;;;21.90;99.90;;;;;;10464533;28;20257;-80
2023/08/01 11:14:20;;;;;;;2.10;2.00;;;21.90;99.90;;;;;;10459860;28;20260;-79
2023/08/01 11:19:25;;;;;;;1.60;1.50;;;21.70;99.90;;;;;;10459273;28;20336;-79
2023/08/01 11:24:28;;;;;;;2.23;2.13;;;21.50;99.90;;;;;;10465432;28;20198;-79
2023/08/01 11:29:39;;;;;;;2.40;2.30;;;21.20;99.90;;;;;;10459185;28;20575;-80
2023/08/01 11:34:43;;;;;;;2.40;2.20;;;21.20;99.90;;;;;;10458088;28;21330;-79
2023/08/01 11:39:46;;;;;;;1.70;1.60;;;21.20;99.90;;;;;;10454311;28;20214;-79
2023/08/01 11:44:49;;;;;;;2.53;2.43;;;21.10;99.90;;;;;;10456876;28;20603;-81
2023/08/01 11:49:52;;;;;;;1.80;1.70;;;20.90;99.90;;;;;;10456613;28;20325;-82
2023/08/01 11:54:55;;;;;;;1.90;1.80;;;20.90;99.90;;;;;;10464105;28;20209;-79
2023/08/01 11:59:58;;;;;;;1.90;1.80;;;20.90;99.90;;;;;;10458133;28;20234;-79
2023/08/01 12:05:00;;;;;;;1.73;1.60;;;21.10;99.90;;;;;;10460260;28;20217;-79
2023/08/01 12:10:02;;;;;;;1.40;1.30;;;21.20;99.90;;;;;;10462861;28;20291;-79
2023/08/01 12:15:07;;;;;;;1.80;1.70;;;21.40;99.90;;;;;;10459491;28;20222;-79
2023/08/01 12:20:10;;;;;;;1.47;1.30;;;21.50;99.90;;;;;;10461560;28;20233;-79
2023/08/01 12:25:12;;;;;;;2.10;1.83;;;21.70;99.90;;;;;;10452039;28;20226;-81
2023/08/01 12:30:15;;;;;;;1.90;1.80;;;21.90;99.90;;;;;;10456372;28;20229;-78
2023/08/01 12:35:17;;;;;;;2.17;1.77;;;21.90;99.90;;;;;;10458400;28;20189;-79
2023/08/01 12:40:19;;;;;;;1.90;1.80;;;21.80;99.90;;;;;;10459955;28;20222;-80
2023/08/01 12:45:23;;;;;;;2.00;1.90;;;21.80;99.90;;;;;;10456818;28;20683;-79
2023/08/01 12:50:25;;;;;;;2.23;2.10;;;21.70;99.90;;;;;;10457237;28;20226;-79
2023/08/01 12:55:27;;;;;;;2.20;1.70;;;21.60;99.90;;;;;;10460274;28;20202;-78
2023/08/01 13:00:31;;;;;;;1.77;1.67;;;21.60;99.90;;;;;;10455760;28;20229;-79
2023/08/01 13:05:34;;;;;;;1.70;1.60;;;21.60;99.90;;;;;;10458775;28;20194;-79
2023/08/01 13:10:38;;;;;;;2.23;2.00;;;21.70;99.90;;;;;;10458825;28;20323;-78
2023/08/01 13:15:42;;;;;;;2.00;1.80;;;21.70;99.90;;;;;;10458241;28;20213;-79
2023/08/01 13:20:44;;;;;;;1.90;1.80;;;21.90;99.90;;;;;;10456059;28;20225;-79
2023/08/01 13:25:47;;;;;;;2.17;1.93;;;21.90;99.90;;;;;;10458317;28;20202;-79
2023/08/01 13:30:51;;;;;;;1.73;1.50;;;21.90;99.90;;;;;;10457880;28;20218;-79
2023/08/01 13:35:53;;;;;;;2.20;2.10;;;21.90;99.90;;;;;;10459708;28;20202;-79
2023/08/01 13:40:55;;;;;;;2.30;2.10;;;21.90;99.90;;;;;;10458404;28;20237;-79
2023/08/01 13:45:59;;;;;;;2.63;2.43;;;21.90;99.90;;;;;;10458513;28;20198;-79
2023/08/01 13:51:01;;;;;;;3.83;2.20;;;21.90;99.90;;;;;;10455716;28;20226;-78
2023/08/01 13:56:03;;;;;;;2.17;1.73;;;21.90;99.90;;;;;;10459934;28;20528;-79
2023/08/01 14:01:07;;;;;;;2.20;2.10;;;21.90;99.90;;;;;;10458373;28;20241;-79
2023/08/01 14:06:15;;;;;;;1.90;1.80;;;21.90;99.90;;;;;;10459105;28;20286;-79
2023/08/01 14:11:18;;;;;;;2.37;2.17;;;21.90;99.90;;;;;;10456755;28;20233;-79
2023/08/01 14:16:21;;;;;;;1.93;1.70;;;21.90;99.90;;;;;;10456748;28;20739;-79
2023/08/01 14:21:23;;;;;;;1.97;1.87;;;21.90;99.90;;;;;;10457081;28;20202;-79
2023/08/01 14:26:25;;;;;;;5.00;4.67;;;21.90;99.90;;;;;;10455918;28;20691;-79
2023/08/01 14:31:29;;;;;;;2.47;2.27;;;21.90;99.90;;;;;;10451702;28;20229;-80
2023/08/01 14:36:31;;;;;;;2.13;1.93;;;22.00;99.90;;;;;;10461715;28;20626;-78
2023/08/01 14:41:33;;;;;;;1.90;1.80;;;22.10;99.90;;;;;;10469262;28;20233;-80
2023/08/01 14:46:38;;;;;;;5.30;1.77;;;22.20;98.60;;;;;;10470698;28;20230;-79
2023/08/01 14:51:40;;;;;;;2.40;2.20;;;22.30;98.40;;;;;;10484764;28;20640;-78
2023/08/01 14:56:42;;;;;;;1.70;1.60;;;22.30;98.70;;;;;;10473687;28;20218;-78
2023/08/01 15:01:45;;;;;;;1.70;1.60;;;22.40;97.10;;;;;;10489372;28;20225;-79
2023/08/01 15:06:48;;;;;;;1.97;1.80;;;22.40;97.70;;;;;;10485551;28;20221;-78
2023/08/01 15:11:50;;;;;;;2.30;2.10;;;22.30;98.20;;;;;;10474122;28;20213;-79
2023/08/01 15:16:53;;;;;;;1.60;1.50;;;22.30;98.80;;;;;;10469940;28;20293;-79
2023/08/01 15:21:55;;;;;;;2.27;1.83;;;22.30;96.70;;;;;;10460982;28;20198;-77
2023/08/01 15:26:57;;;;;;;1.77;1.67;;;22.30;97.00;;;;;;10461835;28;20213;-81
2023/08/01 15:32:01;;;;;;;1.93;1.80;;;22.20;98.50;;;;;;10462494;28;20218;-79
2023/08/01 15:37:03;;;;;;;2.17;2.07;;;22.20;97.30;;;;;;10462704;28;20779;-78
2023/08/01 15:42:06;;;;;;;2.00;1.90;;;22.30;98.30;;;;;;10452405;28;20194;-78
2023/08/01 15:47:10;;;;;;;1.60;1.50;;;22.20;99.30;;;;;;10460621;28;20225;-79
2023/08/01 15:52:12;;;;;;;2.10;2.00;;;22.20;99.10;;;;;;10457443;28;20636;-79
2023/08/01 15:57:14;;;;;;;2.10;1.90;;;22.20;98.60;;;;;;10467122;28;20222;-78
2023/08/01 16:02:17;;;;;;;1.90;1.80;;;22.20;98.10;;;;;;10474723;28;20206;-78
2023/08/01 16:07:19;;;;;;;2.00;1.90;;;22.20;98.60;;;;;;10475560;28;20221;-78
2023/08/01 16:12:21;;;;;;;4.50;2.47;;;22.20;97.20;;;;;;10459651;28;20570;-78
2023/08/01 16:17:25;;;;;;;2.00;1.90;;;22.30;97.30;;;;;;10484667;22;20226;-85
2023/08/01 16:22:27;;;;;;;2.57;2.30;;;22.40;97.10;;;;;;10448343;28;20223;-85
2023/08/01 16:27:29;;;;;;;2.30;2.10;;;22.40;97.60;;;;;;10450543;28;20230;-88
2023/08/01 16:32:34;;;;;;;2.27;2.17;;;22.30;97.50;;;;;;10442851;28;20211;-86
2023/08/01 16:37:36;;;;;;;2.13;2.03;;;22.30;98.50;;;;;;10442268;28;20253;-85
2023/08/01 16:42:39;;;;;;;2.47;2.37;;;22.20;97.90;;;;;;10453028;28;20206;-85
2023/08/01 16:47:42;;;;;;;2.10;2.00;;;22.20;98.40;;;;;;10448254;28;20257;-86
2023/08/01 16:52:45;;;;;;;2.30;2.20;;;22.30;97.40;;;;;;10452623;28;20225;-85
2023/08/01 16:57:47;;;;;;;4.47;1.93;;;22.30;96.40;;;;;;10437648;28;20199;-86
2023/08/01 17:02:50;;;;;;;2.60;2.07;;;22.20;95.70;;;;;;10447223;28;20207;-86
2023/08/01 17:07:52;;;;;;;2.67;2.47;;;22.20;95.80;;;;;;10446961;28;20338;-84
2023/08/01 17:12:55;;;;;;;3.67;3.37;;;22.10;96.40;;;;;;10438458;28;20203;-85
2023/08/01 17:17:58;;;;;;;1.97;1.87;;;22.00;97.60;;;;;;10437570;28;20222;-86
2023/08/01 17:23:00;;;;;;;2.10;2.00;;;22.00;96.50;;;;;;10437546;28;20682;-86
2023/08/01 17:28:02;;;;;;;2.60;2.50;;;21.90;99.80;;;;;;10429936;28;20219;-86
2023/08/01 17:33:06;;;;;;;2.40;2.30;;;21.80;99.90;;;;;;10433684;28;20206;-86
2023/08/01 17:38:08;;;;;;;2.50;2.30;;;21.80;97.90;;;;;;10432426;28;20297;-86
2023/08/01 17:43:10;;;;;;;2.20;2.00;;;21.70;96.80;;;;;;10433754;28;20209;-85
2023/08/01 17:48:15;;;;;;;2.60;2.40;;;21.60;96.40;;;;;;10436033;28;20219;-86
2023/08/01 17:53:17;;;;;;;2.40;2.27;;;21.60;96.20;;;;;;10432734;28;20220;-89
2023/08/01 17:58:21;;;;;;;2.20;2.00;;;21.60;97.00;;;;;;10435489;28;20210;-84
2023/08/01 18:03:24;;;;;;;1.90;1.80;;;21.50;96.80;;;;;;10437338;28;20198;-87
2023/08/01 18:08:28;;;;;;;2.63;2.43;;;21.50;97.80;;;;;;10431866;28;20210;-86
2023/08/01 18:13:30;;;;;;;2.30;2.20;;;21.40;97.90;;;;;;10435240;28;20654;-86
2023/08/01 18:18:35;;;;;;;1.50;1.40;;;21.40;98.10;;;;;;10430397;28;20273;-84
2023/08/01 18:23:38;;;;;;;2.40;2.20;;;21.30;97.50;;;;;;10428714;28;20554;-84
2023/08/01 18:28:40;;;;;;;2.60;2.50;;;21.20;98.30;;;;;;10435124;28;20227;-85
2023/08/01 18:33:43;;;;;;;3.37;2.63;;;21.20;97.70;;;;;;10431403;28;20671;-85
2023/08/01 18:38:45;;;;;;;2.10;2.00;;;21.10;96.20;;;;;;10438122;28;20284;-84
2023/08/01 18:43:48;;;;;;;3.13;2.53;;;21.10;97.30;;;;;;10433836;28;20670;-86
2023/08/01 18:48:52;;;;;;;2.30;2.10;;;21.00;97.90;;;;;;10431500;28;20223;-86
2023/08/01 18:53:54;;;;;;;5.13;2.47;;;21.00;96.60;;;;;;10433781;28;20278;-85
2023/08/01 18:58:56;;;;;;;2.80;2.40;;;20.90;99.30;;;;;;10432830;28;20254;-85
2023/08/01 19:04:01;;;;;;;2.27;2.17;;;20.80;98.70;;;;;;10429922;28;20210;-84
2023/08/01 19:09:04;;;;;;;2.60;2.13;;;20.80;97.20;;;;;;10428693;28;20218;-84
2023/08/01 19:14:06;;;;;;;2.80;2.60;;;20.70;97.90;;;;;;10436732;28;20230;-85
2023/08/01 19:19:10;;;;;;;3.60;2.57;;;20.70;99.30;;;;;;10445375;28;20234;-84
2023/08/01 19:24:12;;;;;;;2.80;2.67;;;20.70;99.90;;;;;;10432818;28;20202;-84
2023/08/01 19:29:14;;;;;;;2.87;2.67;;;20.70;99.40;;;;;;10420464;28;20223;-84
2023/08/01 19:34:18;;;;;;;3.10;2.80;;;20.60;98.60;;;;;;10414892;28;20195;-83
2023/08/01 19:39:21;;;;;;;2.77;2.57;;;20.70;98.90;;;;;;10421224;28;20218;-84
2023/08/01 19:44:23;;;;;;;2.70;2.50;;;20.70;99.10;;;;;;10429761;28;20229;-85
2023/08/01 19:49:27;;;;;;;3.50;2.90;;;20.70;98.90;;;;;;10426333;28;20245;-82
2023/08/01 19:54:29;;;;;;;3.60;2.90;;;20.70;98.30;;;;;;10414283;28;20209;-84
2023/08/01 19:59:31;;;;;;;6.27;3.00;;;20.60;98.70;;;;;;10429210;28;20279;-84
2023/08/01 20:04:35;;;;;;;5.50;2.17;;;20.60;98.80;;;;;;10426566;28;20681;-85
2023/08/01 20:09:37;;;;;;;4.27;2.20;;;20.60;99.10;;;;;;10431332;28;20214;-84
2023/08/01 20:14:39;;;;;;;2.80;2.70;;;20.60;99.80;;;;;;10438865;28;20545;-84
2023/08/01 20:19:43;;;;;;;2.43;2.23;;;20.60;99.90;;;;;;10424487;28;20277;-84
2023/08/01 20:24:45;;;;;;;2.77;2.57;;;20.60;99.90;;;;;;10421894;28;20571;-86
2023/08/01 20:29:47;;;;;;;4.77;2.40;;;20.60;99.90;;;;;;10424754;28;20231;-85
2023/08/01 20:34:50;;;;;;;2.43;2.27;;;20.60;99.90;;;;;;10428316;28;20435;-85
2023/08/01 20:39:52;;;;;;;3.03;2.30;;;20.60;99.50;;;;;;10424389;28;20242;-84
2023/08/01 20:44:54;;;;;;;2.57;2.33;;;20.50;98.90;;;;;;10424222;28;20207;-85
2023/08/01 20:49:58;;;;;;;2.83;2.33;;;20.50;98.70;;;;;;10422578;28;20709;-84
2023/08/01 20:55:00;;;;;;;2.47;2.20;;;20.40;99.40;;;;;;10429860;28;20199;-85
2023/08/01 21:00:02;;;;;;;2.80;2.60;;;20.40;99.90;;;;;;10426907;28;20261;-84
2023/08/01 21:05:07;;;;;;;2.80;2.50;;;20.30;99.90;;;;;;10427329;28;20201;-84
2023/08/01 21:10:10;;;;;;;2.57;2.37;;;20.20;99.90;;;;;;10422194;28;20333;-85
2023/08/01 21:15:12;;;;;;;2.37;2.17;;;20.20;99.90;;;;;;10423843;28;20202;-85
2023/08/01 21:20:16;;;;;;;3.87;2.53;;;20.10;99.90;;;;;;10435118;28;20600;-85
2023/08/01 21:25:18;;;;;;;5.20;2.83;;;20.10;99.90;;;;;;10422112;28;20198;-85
2023/08/01 21:30:21;;;;;;;2.80;2.60;;;20.00;99.90;;;;;;10410773;28;20225;-84
2023/08/01 21:35:24;;;;;;;3.37;3.00;;;20.00;99.90;;;;;;10426863;28;20198;-84
2023/08/01 21:40:26;;;;;;;2.30;2.10;;;19.90;99.90;;;;;;10427741;28;20215;-85
2023/08/01 21:45:28;;;;;;;2.63;2.43;;;19.90;99.90;;;;;;10427052;28;20208;-84
2023/08/01 21:50:32;;;;;;;2.53;2.43;;;19.80;99.90;;;;;;10421355;28;20238;-84
2023/08/01 21:55:34;;;;;;;3.87;2.90;;;19.80;99.90;;;;;;10425339;28;20195;-85
2023/08/01 22:00:36;;;;;;;3.03;2.40;;;19.80;99.90;;;;;;10422396;28;20223;-85
2023/08/01 22:05:40;;;;;;;2.50;2.30;;;19.80;99.90;;;;;;10422934;28;20273;-84
2023/08/01 22:10:42;;;;;;;3.23;2.07;;;19.70;99.90;;;;;;10427846;28;20249;-85
2023/08/01 22:15:44;;;;;;;2.77;2.33;;;19.70;99.80;;;;;;10414529;28;20303;-85
2023/08/01 22:20:48;;;;;;;2.47;2.13;;;19.60;99.70;;;;;;10435222;28;20229;-87
2023/08/01 22:25:53;;;;;;;2.67;2.47;;;19.60;99.90;;;;;;10425731;28;20203;-84
2023/08/01 22:30:55;;;;;;;2.73;2.53;;;19.60;99.90;;;;;;10424369;28;20219;-85
2023/08/01 22:35:59;;;;;;;3.93;2.30;;;19.60;99.90;;;;;;10425522;28;20571;-85
2023/08/01 22:41:01;;;;;;;4.03;2.90;;;19.60;99.90;;;;;;10425146;28;20241;-86
2023/08/01 22:46:03;;;;;;;3.03;2.73;;;19.50;99.90;;;;;;10426582;28;20225;-87
2023/08/01 22:51:15;;;;;;;2.23;2.13;;;19.50;99.90;;;;;;10425560;28;20288;-85
2023/08/01 22:56:18;;;;;;;2.87;2.67;;;19.50;99.90;;;;;;10432125;28;20305;-85
2023/08/01 23:01:21;;;;;;;2.40;2.20;;;19.40;99.90;;;;;;10429970;28;20268;-84
2023/08/01 23:06:25;;;;;;;4.63;2.30;;;19.40;99.90;;;;;;10428684;28;20221;-84
2023/08/01 23:11:27;;;;;;;2.70;2.50;;;19.40;99.90;;;;;;10425312;28;20280;-86
2023/08/01 23:16:29;;;;;;;2.90;2.70;;;19.40;99.90;;;;;;10428507;28;20234;-86
2023/08/01 23:21:33;;;;;;;3.50;2.67;;;19.30;99.90;;;;;;10428235;28;20234;-86
2023/08/01 23:26:35;;;;;;;3.07;2.87;;;19.30;99.90;;;;;;10423999;28;20206;-85
2023/08/01 23:31:37;;;;;;;2.50;2.33;;;19.20;99.90;;;;;;10427006;28;20333;-84
2023/08/01 23:36:41;;;;;;;2.57;2.37;;;19.20;99.90;;;;;;10429960;28;20206;-85
2023/08/01 23:41:44;;;;;;;2.80;2.60;;;19.20;99.90;;;;;;10435573;28;20211;-84
2023/08/01 23:46:46;;;;;;;2.83;2.63;;;19.20;99.90;;;;;;10430086;28;20663;-86
2023/08/01 23:51:49;;;;;;;2.50;2.33;;;19.10;99.90;;;;;;10431110;28;20230;-86
2023/08/01 23:56:51;;;;;;;3.13;2.53;;;19.10;99.90;;;;;;10432493;28;20206;-86
